createdAt,value
2023-05-21T00:01:16.611Z,17.61
2023-05-21T00:04:19.669Z,17.46
2023-05-21T00:07:23.600Z,17.36
2023-05-21T00:10:26.844Z,17.29
2023-05-21T00:13:29.767Z,17.24
2023-05-21T00:16:32.860Z,17.30
2023-05-21T00:19:36.202Z,17.39
2023-05-21T00:22:40.477Z,17.38
2023-05-21T00:25:43.664Z,17.33
2023-05-21T00:28:46.851Z,17.26
2023-05-21T00:31:51.417Z,17.28
2023-05-21T00:34:54.586Z,17.20
2023-05-21T00:37:59.431Z,17.14
2023-05-21T00:41:03.041Z,17.10
2023-05-21T00:44:07.345Z,17.08
2023-05-21T00:47:10.516Z,17.03
2023-05-21T00:50:15.381Z,16.97
2023-05-21T00:53:19.842Z,17.02
2023-05-21T00:56:24.840Z,17.15
2023-05-21T00:59:30.291Z,17.23
2023-05-21T01:02:34.870Z,17.25
2023-05-21T01:05:38.667Z,17.26
2023-05-21T01:08:42.381Z,17.26
2023-05-21T01:11:50.235Z,17.27
2023-05-21T01:14:54.003Z,17.33
2023-05-21T01:17:57.564Z,17.31
2023-05-21T01:21:01.843Z,17.27
2023-05-21T01:24:08.189Z,17.27
2023-05-21T01:27:12.153Z,17.31
2023-05-21T01:30:18.400Z,17.28
2023-05-21T01:33:36.753Z,17.23
2023-05-21T01:36:48.022Z,17.20
2023-05-21T01:39:57.510Z,17.15
2023-05-21T01:43:01.757Z,16.98
2023-05-21T01:46:10.587Z,16.91
2023-05-21T01:49:14.872Z,17.03
2023-05-21T01:52:18.821Z,17.15
2023-05-21T01:55:25.095Z,17.21
2023-05-21T01:58:28.068Z,17.21
2023-05-21T02:01:31.397Z,17.19
2023-05-21T02:04:34.302Z,17.26
2023-05-21T02:07:37.718Z,17.31
2023-05-21T02:10:40.781Z,17.36
2023-05-21T02:13:46.375Z,17.41
2023-05-21T02:16:49.389Z,17.59
2023-05-21T02:19:53.087Z,17.66
2023-05-21T02:22:56.154Z,17.66
2023-05-21T02:25:59.027Z,17.70
2023-05-21T02:29:01.897Z,17.84
2023-05-21T02:32:05.682Z,17.95
2023-05-21T02:35:10.606Z,17.96
2023-05-21T02:38:13.901Z,17.90
2023-05-21T02:41:16.761Z,17.86
2023-05-21T02:44:21.100Z,17.85
2023-05-21T02:47:24.480Z,17.78
2023-05-21T02:50:28.318Z,17.73
2023-05-21T02:53:34.589Z,17.66
2023-05-21T02:56:37.456Z,17.67
2023-05-21T02:59:43.589Z,17.65
2023-05-21T03:02:46.890Z,17.49
2023-05-21T03:05:50.725Z,17.46
2023-05-21T03:08:54.960Z,17.41
2023-05-21T03:11:57.929Z,17.34
2023-05-21T03:15:01.023Z,17.16
2023-05-21T03:18:04.542Z,17.16
2023-05-21T03:21:07.674Z,17.02
2023-05-21T03:24:13.834Z,16.90
2023-05-21T03:27:17.575Z,16.78
2023-05-21T03:30:21.672Z,16.68
2023-05-21T03:33:47.922Z,16.56
2023-05-21T03:36:58.736Z,16.42
2023-05-21T03:40:02.718Z,16.37
2023-05-21T03:43:06.552Z,16.29
2023-05-21T03:46:09.730Z,16.31
2023-05-21T03:49:32.416Z,16.29
2023-05-21T03:52:35.704Z,16.34
2023-05-21T03:55:38.814Z,16.50
2023-05-21T03:58:44.682Z,16.56
2023-05-21T04:01:47.884Z,16.78
2023-05-21T04:04:56.235Z,17.00
2023-05-21T04:08:01.139Z,17.12
2023-05-21T04:11:04.829Z,17.28
2023-05-21T04:14:07.964Z,17.53
2023-05-21T04:17:12.923Z,17.69
2023-05-21T04:20:17.133Z,17.86
2023-05-21T04:23:23.891Z,18.05
2023-05-21T04:26:34.287Z,18.16
2023-05-21T04:29:42.929Z,18.31
2023-05-21T04:32:48.589Z,18.30
2023-05-21T04:35:52.215Z,18.42
2023-05-21T04:38:56.312Z,18.43
2023-05-21T04:41:59.690Z,18.48
2023-05-21T04:45:03.179Z,18.58
2023-05-21T04:48:10.068Z,18.65
2023-05-21T04:51:12.906Z,18.79
2023-05-21T04:54:15.932Z,18.96
2023-05-21T04:57:19.456Z,19.08
2023-05-21T05:00:22.874Z,19.15
2023-05-21T05:03:27.145Z,19.32
2023-05-21T05:06:31.172Z,19.55
2023-05-21T05:09:34.983Z,19.68
2023-05-21T05:12:39.550Z,19.75
2023-05-21T05:15:43.027Z,19.68
2023-05-21T05:18:46.341Z,19.68
2023-05-21T05:21:49.379Z,19.76
2023-05-21T05:24:52.354Z,19.92
2023-05-21T05:27:55.944Z,20.16
2023-05-21T05:30:58.919Z,20.35
2023-05-21T05:34:02.595Z,20.47
2023-05-21T05:37:05.785Z,20.58
2023-05-21T05:40:09.230Z,20.66
2023-05-21T05:43:12.384Z,20.81
2023-05-21T05:46:15.734Z,20.92
2023-05-21T05:49:18.900Z,20.98
2023-05-21T05:52:22.090Z,21.02
2023-05-21T05:55:26.975Z,21.10
2023-05-21T05:58:31.289Z,21.20
2023-05-21T06:01:47.305Z,21.41
2023-05-21T06:04:50.329Z,21.55
2023-05-21T06:07:53.817Z,21.47
2023-05-21T06:10:59.650Z,21.51
2023-05-21T06:14:02.871Z,21.57
2023-05-21T06:17:06.008Z,21.71
2023-05-21T06:20:10.037Z,21.67
2023-05-21T06:23:13.591Z,21.69
2023-05-21T06:26:19.652Z,21.71
2023-05-21T06:29:25.266Z,21.87
2023-05-21T06:32:29.117Z,21.93
2023-05-21T06:35:37.778Z,21.87
2023-05-21T06:38:42.784Z,21.90
2023-05-21T06:41:48.823Z,22.02
2023-05-21T06:45:10.682Z,22.06
2023-05-21T06:48:17.193Z,22.15
2023-05-21T06:51:20.880Z,22.14
2023-05-21T06:54:27.526Z,22.12
2023-05-21T06:57:31.621Z,22.34
2023-05-21T07:00:34.592Z,22.39
2023-05-21T07:03:37.927Z,22.39
2023-05-21T07:06:41.151Z,22.57
2023-05-21T07:09:44.636Z,22.69
2023-05-21T07:12:47.913Z,22.87
2023-05-21T07:15:51.920Z,22.89
2023-05-21T07:18:56.029Z,22.79
2023-05-21T07:21:59.457Z,22.95
2023-05-21T07:25:02.562Z,23.11
2023-05-21T07:28:06.812Z,23.13
2023-05-21T07:31:12.566Z,23.13
2023-05-21T07:34:20.590Z,23.24
2023-05-21T07:37:23.694Z,23.30
2023-05-21T07:40:26.846Z,23.27
2023-05-21T07:43:31.933Z,23.34
2023-05-21T07:46:35.020Z,23.42
2023-05-21T07:49:39.264Z,23.52
2023-05-21T07:52:42.452Z,23.58
2023-05-21T07:55:48.097Z,23.46
2023-05-21T07:58:55.430Z,23.49
2023-05-21T08:01:58.505Z,23.21
2023-05-21T08:05:04.401Z,23.35
2023-05-21T08:08:07.526Z,23.70
2023-05-21T08:11:11.319Z,23.44
2023-05-21T08:14:14.494Z,23.65
2023-05-21T08:17:18.026Z,23.72
2023-05-21T08:20:22.017Z,23.82
2023-05-21T08:23:27.437Z,23.70
2023-05-21T08:26:32.739Z,23.82
2023-05-21T08:29:36.207Z,23.97
2023-05-21T08:32:41.675Z,23.54
2023-05-21T08:35:45.160Z,23.87
2023-05-21T08:39:04.840Z,24.11
2023-05-21T08:42:35.633Z,24.06
2023-05-21T08:45:43.078Z,24.32
2023-05-21T08:48:47.562Z,24.50
2023-05-21T08:51:51.593Z,24.53
2023-05-21T08:54:57.088Z,24.61
2023-05-21T08:58:01.790Z,24.88
2023-05-21T09:01:05.718Z,25.11
2023-05-21T09:07:27.705Z,25.23
2023-05-21T09:11:09.215Z,25.15
2023-05-21T09:14:19.800Z,25.27
2023-05-21T09:17:47.546Z,25.51
2023-05-21T09:21:29.858Z,24.98
2023-05-21T09:24:42.113Z,25.38
2023-05-21T09:27:45.439Z,25.73
2023-05-21T09:30:49.824Z,26.02
2023-05-21T09:33:52.878Z,26.17
2023-05-21T09:36:57.972Z,26.17
2023-05-21T09:40:15.590Z,26.32
2023-05-21T09:43:21.821Z,26.13
2023-05-21T09:46:27.241Z,25.70
2023-05-21T09:49:31.383Z,25.84
2023-05-21T09:52:41.917Z,25.64
2023-05-21T09:55:44.899Z,25.94
2023-05-21T09:58:47.634Z,26.37
2023-05-21T10:01:53.166Z,26.55
2023-05-21T10:04:57.432Z,26.74
2023-05-21T10:08:04.374Z,25.89
2023-05-21T10:11:07.434Z,26.03
2023-05-21T10:14:19.929Z,26.56
2023-05-21T10:17:24.132Z,26.19
2023-05-21T10:20:27.502Z,26.20
2023-05-21T10:23:30.613Z,26.56
2023-05-21T10:26:33.930Z,27.02
2023-05-21T10:29:38.691Z,26.76
2023-05-21T10:32:44.690Z,27.30
2023-05-21T10:35:52.570Z,27.03
2023-05-21T10:38:57.319Z,27.25
2023-05-21T10:42:22.092Z,27.25
2023-05-21T10:45:48.142Z,28.32
2023-05-21T10:49:16.432Z,28.45
2023-05-21T10:52:33.100Z,28.28
2023-05-21T10:56:09.253Z,28.58
2023-05-21T10:59:33.515Z,30.05
2023-05-21T11:02:37.556Z,29.93
2023-05-21T11:05:57.575Z,28.81
2023-05-21T11:09:16.496Z,29.39
2023-05-21T11:12:23.167Z,30.31
2023-05-21T11:15:26.133Z,29.87
2023-05-21T11:18:40.369Z,29.79
2023-05-21T11:21:43.742Z,30.32
2023-05-21T11:24:48.278Z,30.38
2023-05-21T11:27:54.197Z,29.98
2023-05-21T11:31:27.226Z,29.98
2023-05-21T11:34:44.337Z,31.23
2023-05-21T11:37:53.861Z,32.30
2023-05-21T11:41:03.467Z,32.75
2023-05-21T11:44:09.421Z,33.28
2023-05-21T11:47:16.687Z,30.74
2023-05-21T11:50:20.958Z,30.86
2023-05-21T11:53:24.412Z,31.71
2023-05-21T11:56:32.180Z,32.69
2023-05-21T11:59:36.161Z,33.22
2023-05-21T12:02:39.357Z,32.60
2023-05-21T12:05:49.326Z,31.77
2023-05-21T12:08:53.091Z,32.03
2023-05-21T12:11:56.028Z,31.32
2023-05-21T12:15:02.780Z,32.56
2023-05-21T12:18:06.432Z,30.71
2023-05-21T12:21:11.674Z,31.73
2023-05-21T12:24:16.516Z,32.97
2023-05-21T12:27:21.715Z,32.18
2023-05-21T12:30:26.326Z,31.68
2023-05-21T12:33:36.163Z,33.02
2023-05-21T12:36:39.541Z,34.20
2023-05-21T12:39:47.429Z,34.58
2023-05-21T12:42:52.016Z,34.20
2023-05-21T12:45:55.178Z,33.97
2023-05-21T12:48:58.178Z,33.61
2023-05-21T12:52:03.720Z,32.97
2023-05-21T12:55:09.373Z,32.95
2023-05-21T12:58:14.572Z,32.83
2023-05-21T13:01:18.073Z,31.95
2023-05-21T13:04:21.619Z,32.86
2023-05-21T13:07:29.963Z,33.15
2023-05-21T13:10:33.136Z,34.07
2023-05-21T13:13:36.297Z,32.17
2023-05-21T13:16:39.577Z,32.78
2023-05-21T13:19:42.674Z,34.56
2023-05-21T13:22:47.473Z,35.36
2023-05-21T13:25:50.534Z,35.17
2023-05-21T13:28:53.708Z,35.55
2023-05-21T13:31:56.582Z,33.54
2023-05-21T13:34:59.648Z,31.15
2023-05-21T13:38:02.518Z,32.86
2023-05-21T13:41:05.635Z,34.56
2023-05-21T13:44:08.403Z,32.12
2023-05-21T13:47:12.230Z,31.22
2023-05-21T13:50:16.480Z,32.13
2023-05-21T13:53:19.265Z,31.65
2023-05-21T13:56:23.324Z,31.17
2023-05-21T13:59:26.443Z,29.89
2023-05-21T14:02:29.726Z,29.68
2023-05-21T14:05:32.690Z,29.24
2023-05-21T14:08:35.730Z,29.69
2023-05-21T14:11:38.650Z,29.31
2023-05-21T14:14:42.179Z,30.02
2023-05-21T14:17:44.926Z,30.47
2023-05-21T14:20:47.766Z,29.56
2023-05-21T14:23:50.895Z,28.90
2023-05-21T14:26:53.721Z,28.95
2023-05-21T14:29:56.484Z,28.96
2023-05-21T14:32:59.314Z,29.19
2023-05-21T14:36:02.743Z,29.81
2023-05-21T14:39:05.907Z,29.89
2023-05-21T14:42:08.674Z,30.58
2023-05-21T14:45:18.996Z,30.54
2023-05-21T14:48:23.992Z,29.54
2023-05-21T14:51:27.365Z,29.07
2023-05-21T14:54:33.142Z,29.26
2023-05-21T14:57:36.085Z,29.29
2023-05-21T15:00:39.303Z,28.57
2023-05-21T15:03:42.169Z,28.53
2023-05-21T15:06:45.196Z,27.82
2023-05-21T15:09:48.370Z,27.40
2023-05-21T15:12:51.855Z,26.94
2023-05-21T15:15:54.906Z,27.13
2023-05-21T15:18:58.013Z,26.85
2023-05-21T15:22:00.973Z,26.98
2023-05-21T15:25:05.325Z,27.04
2023-05-21T15:28:08.368Z,26.90
2023-05-21T15:31:12.645Z,26.47
2023-05-21T15:34:15.962Z,26.51
2023-05-21T15:37:18.903Z,26.45
2023-05-21T15:40:22.940Z,26.35
2023-05-21T15:43:27.218Z,26.38
2023-05-21T15:46:29.993Z,26.33
2023-05-21T15:49:34.180Z,26.41
2023-05-21T15:52:37.479Z,26.28
2023-05-21T15:55:40.533Z,26.22
2023-05-21T15:58:43.524Z,26.18
2023-05-21T16:01:47.294Z,26.17
2023-05-21T16:04:52.312Z,25.96
2023-05-21T16:07:55.500Z,25.81
2023-05-21T16:10:58.676Z,25.80
2023-05-21T16:14:01.847Z,25.70
2023-05-21T16:17:04.912Z,25.70
2023-05-21T16:20:08.422Z,25.70
2023-05-21T16:23:12.518Z,25.61
2023-05-21T16:26:15.586Z,25.51
2023-05-21T16:29:18.759Z,25.35
2023-05-21T16:32:22.360Z,25.35
2023-05-21T16:35:25.627Z,25.36
2023-05-21T16:38:28.598Z,25.34
2023-05-21T16:41:31.879Z,25.28
2023-05-21T16:44:34.948Z,25.21
2023-05-21T16:47:37.794Z,25.10
2023-05-21T16:50:41.217Z,24.97
2023-05-21T16:53:44.289Z,24.91
2023-05-21T16:56:47.396Z,24.78
2023-05-21T16:59:50.732Z,24.73
2023-05-21T17:02:54.770Z,24.62
2023-05-21T17:05:57.920Z,24.54
2023-05-21T17:09:01.872Z,24.48
2023-05-21T17:12:05.086Z,24.44
2023-05-21T17:15:08.565Z,24.37
2023-05-21T17:18:12.330Z,24.32
2023-05-21T17:21:15.788Z,24.18
2023-05-21T17:24:18.921Z,24.01
2023-05-21T17:27:22.292Z,23.86
2023-05-21T17:30:25.471Z,23.76
2023-05-21T17:33:31.733Z,23.65
2023-05-21T17:36:36.059Z,23.50
2023-05-21T17:39:39.616Z,23.33
2023-05-21T17:42:42.707Z,23.17
2023-05-21T17:45:45.976Z,23.02
2023-05-21T17:48:49.446Z,22.81
2023-05-21T17:51:52.724Z,22.62
2023-05-21T17:54:56.011Z,22.48
2023-05-21T17:57:59.290Z,22.34
2023-05-21T18:01:02.975Z,22.21
2023-05-21T18:04:12.328Z,22.07
2023-05-21T18:07:16.295Z,21.99
2023-05-21T18:10:19.577Z,21.92
2023-05-21T18:13:23.060Z,21.91
2023-05-21T18:16:26.790Z,21.77
2023-05-21T18:19:31.640Z,21.74
2023-05-21T18:22:35.139Z,21.71
2023-05-21T18:25:38.551Z,21.69
2023-05-21T18:28:41.909Z,21.69
2023-05-21T18:31:45.940Z,21.65
2023-05-21T18:34:49.977Z,21.63
2023-05-21T18:37:54.000Z,21.55
2023-05-21T18:40:57.078Z,21.63
2023-05-21T18:44:02.038Z,21.58
2023-05-21T18:47:05.409Z,21.55
2023-05-21T18:50:11.731Z,21.40
2023-05-21T18:53:14.905Z,21.38
2023-05-21T18:56:18.390Z,21.31
2023-05-21T18:59:21.867Z,21.30
2023-05-21T19:02:26.606Z,21.28
2023-05-21T19:05:30.195Z,21.25
2023-05-21T19:08:34.163Z,21.34
2023-05-21T19:11:37.747Z,21.28
2023-05-21T19:14:45.118Z,21.36
2023-05-21T19:17:48.732Z,21.39
2023-05-21T19:20:52.279Z,21.56
2023-05-21T19:23:56.073Z,21.67
2023-05-21T19:27:00.357Z,21.77
2023-05-21T19:30:03.561Z,21.64
2023-05-21T19:33:06.726Z,21.64
2023-05-21T19:36:12.138Z,21.61
2023-05-21T19:39:15.121Z,21.54
2023-05-21T19:42:21.636Z,21.58
2023-05-21T19:45:25.593Z,21.56
2023-05-21T19:48:28.857Z,21.46
2023-05-21T19:51:32.051Z,21.41
2023-05-21T19:54:35.106Z,21.37
2023-05-21T19:57:39.821Z,21.23
2023-05-21T20:00:46.859Z,21.21
2023-05-21T20:03:50.522Z,21.32
2023-05-21T20:06:54.255Z,21.16
2023-05-21T20:09:57.802Z,21.06
2023-05-21T20:13:04.025Z,21.14
2023-05-21T20:16:07.828Z,21.08
2023-05-21T20:19:11.372Z,21.03
2023-05-21T20:22:18.050Z,20.83
2023-05-21T20:30:59.818Z,20.54
2023-05-21T20:34:13.306Z,20.59
2023-05-21T20:37:16.771Z,20.65
2023-05-21T20:40:20.350Z,20.54
2023-05-21T20:43:24.846Z,20.87
2023-05-21T20:46:38.905Z,20.77
2023-05-21T20:49:44.305Z,20.83
2023-05-21T20:52:48.001Z,20.80
2023-05-21T20:55:54.911Z,20.77
2023-05-21T20:59:04.165Z,20.47
2023-05-21T21:02:12.569Z,20.18
2023-05-21T21:05:16.667Z,19.76
2023-05-21T21:08:20.900Z,19.22
2023-05-21T21:11:24.287Z,19.03
2023-05-21T21:14:28.371Z,18.99
2023-05-21T21:17:32.416Z,18.92
2023-05-21T21:20:35.522Z,18.90
2023-05-21T21:23:38.914Z,18.84
2023-05-21T21:26:42.094Z,18.82
2023-05-21T21:29:46.589Z,19.02
2023-05-21T21:32:49.739Z,18.99
2023-05-21T21:35:52.735Z,19.03
2023-05-21T21:38:56.256Z,19.12
2023-05-21T21:41:59.721Z,19.29
2023-05-21T21:45:03.841Z,19.29
2023-05-21T21:48:07.801Z,19.39
2023-05-21T21:51:11.221Z,19.36
2023-05-21T21:54:14.704Z,19.32
2023-05-21T21:57:18.083Z,19.17
2023-05-21T22:00:26.586Z,19.23
2023-05-21T22:03:35.087Z,19.13
2023-05-21T22:06:39.505Z,18.99
2023-05-21T22:09:43.179Z,18.90
2023-05-21T22:12:47.078Z,18.87
2023-05-21T22:15:53.315Z,18.77
2023-05-21T22:18:58.303Z,18.61
2023-05-21T22:22:02.412Z,18.47
2023-05-21T22:25:05.820Z,18.38
2023-05-21T22:28:08.879Z,18.17
2023-05-21T22:31:12.097Z,18.06
2023-05-21T22:34:15.148Z,18.15
2023-05-21T22:37:19.249Z,17.93
2023-05-21T22:40:22.323Z,17.90
2023-05-21T22:43:26.587Z,17.85
2023-05-21T22:46:29.552Z,17.76
2023-05-21T22:49:35.496Z,17.67
2023-05-21T22:52:38.563Z,17.59
2023-05-21T22:55:41.333Z,17.52
2023-05-21T22:58:45.683Z,17.36
2023-05-21T23:01:49.411Z,17.14
2023-05-21T23:04:52.564Z,17.05
2023-05-21T23:07:55.575Z,16.87
2023-05-21T23:10:58.663Z,16.71
2023-05-21T23:14:01.974Z,16.59
2023-05-21T23:17:05.973Z,16.64
2023-05-21T23:20:10.895Z,16.40
2023-05-21T23:23:14.582Z,16.32
2023-05-21T23:26:18.166Z,16.55
2023-05-21T23:29:21.958Z,16.63
2023-05-21T23:32:26.186Z,16.90
2023-05-21T23:35:30.053Z,16.73
2023-05-21T23:38:33.842Z,16.84
2023-05-21T23:41:37.944Z,16.78
2023-05-21T23:44:42.673Z,16.78
2023-05-21T23:47:46.356Z,16.65
2023-05-21T23:50:50.134Z,16.49
2023-05-21T23:53:56.685Z,16.58
2023-05-21T23:57:00.478Z,16.77
